Time;durP1;ratioP1;P1;durP2;ratioP2;P2;SDS_P1;SDS_P2;PMS_P1;PMS_P2;Temp;Humidity;BMP_temperature;BMP_pressure;BME280_temperature;BME280_humidity;BME280_pressure;Samples;Min_cycle;Max_cycle;Signal;HPM_P1;HPM_P2
2023/11/30 08:28:18;;;;;;;15.63;7.70;;;;;;;-1.48;93.23;94969.72;2101969;27;21080;-59
2023/11/30 08:55:34;;;;;;;11.88;6.80;;;;;;;-0.24;88.05;94969.84;2083419;28;20562;-64
2023/11/30 08:58:58;;;;;;;11.95;7.60;;;;;;;-0.04;87.43;94976.13;2090543;27;21087;-65
2023/11/30 09:02:24;;;;;;;14.38;6.88;;;;;;;-0.25;87.77;94973.31;2091872;27;20562;-64
2023/11/30 09:05:45;;;;;;;13.98;7.65;;;;;;;-0.03;86.67;94973.50;2083010;28;20572;-64
2023/11/30 09:06:47;;;;;;;12.13;7.45;;;;;;;-0.09;86.56;94971.13;2084856;28;20193;-64
2023/11/30 09:09:39;;;;;;;13.50;7.80;;;;;;;0.28;86.56;94964.88;2100024;27;20565;-65
2023/11/30 09:10:47;;;;;;;14.20;6.85;;;;;;;0.48;85.17;94964.25;2086701;28;20321;-65
2023/11/30 09:11:48;;;;;;;13.13;7.38;;;;;;;0.62;84.44;94968.09;2089740;28;20284;-64
2023/11/30 09:12:50;;;;;;;11.88;8.07;;;;;;;0.72;84.59;94956.63;2073921;28;20767;-65
2023/11/30 09:13:52;;;;;;;11.40;6.35;;;;;;;0.95;83.81;94960.16;2073359;28;20209;-65
2023/11/30 09:14:54;;;;;;;13.07;6.97;;;;;;;0.86;83.36;94952.78;2074615;28;20201;-65
2023/11/30 09:15:55;;;;;;;13.00;7.22;;;;;;;0.60;83.78;94957.06;2068656;28;20212;-60
2023/11/30 09:16:59;;;;;;;11.50;7.32;;;;;;;0.67;84.39;94968.78;2089024;28;20197;-60
2023/11/30 09:18:03;;;;;;;9.85;6.65;;;;;;;0.52;84.30;94972.72;2078252;28;20228;-60
2023/11/30 09:19:07;;;;;;;11.02;6.53;;;;;;;0.53;84.34;94976.09;2071062;28;20217;-61
2023/11/30 09:20:09;;;;;;;12.70;7.22;;;;;;;0.11;85.44;94978.22;2068114;28;20221;-61
2023/11/30 09:23:19;;;;;;;16.88;7.15;;;;;;;0.26;85.04;94974.34;2084864;28;20572;-58
2023/11/30 09:24:21;;;;;;;13.32;7.50;;;;;;;0.36;84.84;94984.34;2081745;28;20228;-58
2023/11/30 09:25:23;;;;;;;11.38;7.13;;;;;;;0.45;85.39;94984.06;2082854;28;20204;-58
2023/11/30 09:26:25;;;;;;;11.68;6.38;;;;;;;0.44;84.91;94980.63;2082335;28;20205;-58
2023/11/30 09:29:12;;;;;;;14.18;7.93;;;;;;;0.52;85.26;94977.84;2090431;28;20554;-58
2023/11/30 09:30:14;;;;;;;13.13;7.80;;;;;;;0.50;85.27;94974.47;2094378;28;20675;-58
2023/11/30 09:31:16;;;;;;;11.90;6.97;;;;;;;0.45;84.80;94972.03;2093901;28;20195;-58
2023/11/30 09:33:37;;;;;;;17.15;7.93;;;;;;;0.53;85.35;94968.41;2083374;28;20899;-58
2023/11/30 09:35:50;;;;;;;13.63;7.15;;;;;;;0.46;85.16;94967.78;2098893;27;20553;-58
2023/11/30 09:37:52;;;;;;;14.10;7.15;;;;;;;0.59;85.05;94963.06;2084827;28;20927;-60
2023/11/30 09:38:53;;;;;;;14.70;7.18;;;;;;;0.54;85.36;94962.38;2090217;28;20254;-60
2023/11/30 09:39:55;;;;;;;9.38;6.30;;;;;;;0.68;85.42;94962.75;2089784;28;20702;-60
2023/11/30 09:40:58;;;;;;;12.65;6.60;;;;;;;0.88;85.22;94979.28;2083024;28;20201;-60
2023/11/30 09:50:01;;;;;;;13.35;6.20;;;;;;;0.29;86.92;94958.00;2084111;28;21070;-65
2023/11/30 10:09:25;;;;;;;17.05;7.13;;;;;;;0.18;87.75;94912.16;2081953;28;20580;-65
2023/11/30 10:10:27;;;;;;;9.98;5.43;;;;;;;0.37;87.44;94921.81;2082425;28;20636;-60
2023/11/30 10:13:09;;;;;;;9.38;5.95;;;;;;;0.60;86.62;94933.94;2083478;28;21171;-60
2023/11/30 10:14:10;;;;;;;10.02;6.32;;;;;;;0.46;87.22;94922.38;2082634;28;20200;-60
2023/11/30 10:15:12;;;;;;;15.70;6.45;;;;;;;0.73;86.84;94931.78;2088255;28;20208;-60
2023/11/30 10:16:14;;;;;;;10.60;6.55;;;;;;;0.83;86.36;94938.28;2081946;28;20189;-60
2023/11/30 10:17:16;;;;;;;11.55;6.03;;;;;;;0.80;86.12;94899.84;2078328;28;20765;-60
2023/11/30 10:18:17;;;;;;;7.47;4.68;;;;;;;1.08;85.65;94915.16;2072472;28;20194;-61
2023/11/30 10:19:19;;;;;;;6.80;4.40;;;;;;;1.39;85.45;94919.19;2073727;28;20688;-60
2023/11/30 10:20:22;;;;;;;9.15;5.32;;;;;;;1.91;82.99;94915.59;2072202;28;20224;-60
2023/11/30 10:21:23;;;;;;;9.63;5.35;;;;;;;1.66;83.29;94913.09;2073042;28;20551;-60
2023/11/30 10:22:25;;;;;;;8.63;4.90;;;;;;;1.54;83.67;94891.25;2069185;28;20754;-60
2023/11/30 10:23:27;;;;;;;11.75;5.88;;;;;;;1.63;83.15;94903.78;2073762;28;20201;-60
2023/11/30 10:24:28;;;;;;;8.77;5.10;;;;;;;1.68;83.22;94909.59;2073299;28;20208;-60
2023/11/30 10:25:30;;;;;;;10.20;5.35;;;;;;;1.71;82.82;94903.47;2070388;28;20251;-60
2023/11/30 10:26:34;;;;;;;6.80;4.35;;;;;;;1.64;82.65;94923.47;2071111;28;20248;-61
2023/11/30 10:27:36;;;;;;;8.30;4.43;;;;;;;1.65;83.59;94916.56;2073225;28;20233;-60
2023/11/30 10:28:38;;;;;;;11.77;5.20;;;;;;;1.88;83.16;94918.28;2073752;28;20213;-61
2023/11/30 10:29:43;;;;;;;8.02;4.55;;;;;;;1.77;82.12;94927.25;2073769;28;20197;-60
2023/11/30 10:30:45;;;;;;;20.52;4.00;;;;;;;1.60;82.95;94924.44;2085764;28;20205;-60
2023/11/30 10:31:49;;;;;;;8.30;4.30;;;;;;;1.75;83.09;94923.91;2087223;28;20202;-60
2023/11/30 10:32:51;;;;;;;8.57;4.45;;;;;;;1.76;83.23;94925.56;2064174;28;20222;-60
2023/11/30 10:33:55;;;;;;;11.80;4.57;;;;;;;1.83;83.42;94927.91;2070506;28;20225;-60
2023/11/30 10:35:01;;;;;;;7.32;4.50;;;;;;;1.82;83.49;94916.78;2073532;28;20214;-61
2023/11/30 10:36:05;;;;;;;8.02;4.45;;;;;;;1.81;83.60;94911.69;2073942;28;20198;-61
2023/11/30 10:37:09;;;;;;;6.95;4.70;;;;;;;1.84;83.64;94911.56;2072071;28;20201;-60
2023/11/30 10:38:18;;;;;;;8.90;4.90;;;;;;;1.94;83.30;94907.75;2074345;28;20260;-61
2023/11/30 10:39:23;;;;;;;6.88;4.55;;;;;;;2.07;83.37;94908.09;2070381;28;20203;-61
2023/11/30 10:40:27;;;;;;;6.40;4.10;;;;;;;1.93;83.69;94900.91;2072322;28;20679;-61
2023/11/30 10:41:49;;;;;;;8.80;5.10;;;;;;;2.01;83.68;94895.50;2071741;28;20226;-61
2023/11/30 10:42:51;;;;;;;8.80;4.68;;;;;;;2.01;83.72;94887.78;2071593;28;20652;-61
2023/11/30 10:43:58;;;;;;;8.02;4.70;;;;;;;1.98;83.09;94898.16;2073109;28;20548;-61
2023/11/30 10:45:06;;;;;;;9.75;4.70;;;;;;;1.93;83.57;94875.16;2073386;28;20909;-61
2023/11/30 10:46:08;;;;;;;8.60;4.53;;;;;;;2.15;83.10;94900.94;2072462;28;20271;-61
2023/11/30 10:47:10;;;;;;;9.65;4.43;;;;;;;2.14;83.38;94891.53;2073697;28;20200;-61
2023/11/30 10:48:12;;;;;;;9.18;4.28;;;;;;;2.05;83.54;94892.72;2074180;28;20254;-61
2023/11/30 10:49:14;;;;;;;6.90;4.18;;;;;;;2.03;83.91;94894.53;2074856;28;20199;-61
2023/11/30 10:50:17;;;;;;;9.63;5.20;;;;;;;1.95;84.10;94897.38;2070200;28;20202;-61
2023/11/30 10:51:20;;;;;;;9.05;4.97;;;;;;;2.05;83.72;94890.16;2072931;28;20206;-61
2023/11/30 10:52:23;;;;;;;8.10;4.70;;;;;;;2.05;83.68;94899.63;2073863;28;20364;-61
2023/11/30 10:53:55;;;;;;;7.93;5.07;;;;;;;2.32;83.41;94889.13;2074919;28;20208;-61
2023/11/30 10:55:19;;;;;;;6.93;4.45;;;;;;;2.53;82.79;94900.31;2073410;28;20252;-66
2023/11/30 10:56:22;;;;;;;8.95;4.75;;;;;;;2.07;82.83;94892.66;2070102;28;20225;-66
2023/11/30 10:57:23;;;;;;;9.20;4.80;;;;;;;2.00;83.50;94886.09;2065260;28;20243;-66
2023/11/30 10:58:25;;;;;;;10.85;5.07;;;;;;;2.14;83.71;94867.53;2073303;28;20559;-66
2023/11/30 10:59:31;;;;;;;7.20;4.50;;;;;;;2.30;83.46;94886.63;2072444;28;20244;-66
2023/11/30 11:00:34;;;;;;;8.50;4.22;;;;;;;2.10;83.42;94874.53;2075164;28;20203;-66
2023/11/30 11:01:36;;;;;;;6.65;4.43;;;;;;;1.93;83.47;94885.47;2073622;28;20213;-66
2023/11/30 11:02:42;;;;;;;7.20;4.80;;;;;;;1.91;83.65;94869.25;2089799;28;20227;-66
2023/11/30 11:03:48;;;;;;;7.43;4.30;;;;;;;2.11;83.69;94884.75;2087956;28;20212;-66
2023/11/30 11:04:52;;;;;;;8.40;4.95;;;;;;;1.99;83.54;94876.69;2075340;28;20201;-66
2023/11/30 11:05:55;;;;;;;8.00;4.47;;;;;;;2.07;83.77;94878.06;2070057;28;20199;-66
2023/11/30 11:07:01;;;;;;;9.48;4.97;;;;;;;1.96;84.06;94882.78;2070840;28;20217;-67
2023/11/30 11:08:03;;;;;;;8.27;4.10;;;;;;;1.87;84.58;94872.84;2073742;28;20232;-66
2023/11/30 11:09:09;;;;;;;7.85;4.93;;;;;;;1.95;84.39;94886.25;2072541;28;20224;-67
2023/11/30 11:10:23;;;;;;;8.25;5.18;;;;;;;2.11;84.07;94883.94;2077614;28;20340;-61
2023/11/30 11:11:28;;;;;;;10.43;5.15;;;;;;;2.13;83.91;94895.00;2076079;28;20281;-61
2023/11/30 11:12:37;;;;;;;6.80;4.35;;;;;;;2.19;83.88;94891.34;2067483;28;20268;-61
2023/11/30 11:13:46;;;;;;;11.80;5.25;;;;;;;2.16;84.14;94897.47;2069807;28;20663;-61
2023/11/30 11:14:49;;;;;;;9.77;4.80;;;;;;;2.06;84.62;94896.97;2071343;28;20198;-62
2023/11/30 11:16:02;;;;;;;9.45;5.10;;;;;;;1.99;84.98;94887.81;2073711;28;20611;-61
2023/11/30 11:17:08;;;;;;;8.02;4.80;;;;;;;1.93;84.73;94893.19;2070281;28;20207;-61
2023/11/30 11:18:15;;;;;;;9.98;4.65;;;;;;;1.77;85.32;94898.09;2071313;28;21206;-62
2023/11/30 11:19:17;;;;;;;7.78;4.80;;;;;;;1.74;85.59;94888.75;2069383;28;20205;-62
2023/11/30 11:20:28;;;;;;;10.23;5.30;;;;;;;1.87;85.49;94896.84;2073104;28;20195;-62
2023/11/30 11:21:37;;;;;;;7.28;4.68;;;;;;;1.96;85.22;94888.75;2073963;28;20203;-67
2023/11/30 11:22:39;;;;;;;9.43;4.65;;;;;;;2.09;85.11;94898.59;2072170;28;20307;-66
2023/11/30 11:23:42;;;;;;;7.55;4.68;;;;;;;1.92;85.62;94891.53;2072813;28;20201;-66
2023/11/30 11:24:45;;;;;;;8.85;4.85;;;;;;;1.93;85.21;94888.91;2066776;28;20234;-66
2023/11/30 11:25:48;;;;;;;7.55;4.50;;;;;;;1.74;85.36;94883.63;2067800;28;20206;-66
2023/11/30 11:26:58;;;;;;;8.90;4.97;;;;;;;1.74;85.68;94891.34;2064393;28;20194;-66
2023/11/30 11:27:59;;;;;;;6.13;4.25;;;;;;;1.88;86.00;94888.25;2066815;28;20275;-66
2023/11/30 11:29:01;;;;;;;8.02;4.28;;;;;;;1.82;85.70;94891.03;2068646;28;20207;-66
2023/11/30 11:30:07;;;;;;;9.63;5.40;;;;;;;1.74;85.96;94885.34;2067955;28;20204;-66
2023/11/30 11:31:09;;;;;;;7.97;4.85;;;;;;;1.84;86.03;94876.38;2066500;28;20204;-66
2023/11/30 11:32:12;;;;;;;9.32;5.40;;;;;;;1.83;86.33;94885.00;2063439;28;20198;-66
2023/11/30 11:33:20;;;;;;;8.75;4.80;;;;;;;1.64;86.29;94877.16;2065435;28;20248;-66
2023/11/30 11:34:22;;;;;;;7.75;4.35;;;;;;;1.67;86.17;94868.47;2068191;28;20499;-66
2023/11/30 11:35:26;;;;;;;9.98;5.70;;;;;;;1.79;86.67;94871.41;2067897;28;20914;-66
2023/11/30 11:36:28;;;;;;;7.82;4.50;;;;;;;1.68;86.78;94870.16;2068108;28;20236;-66
2023/11/30 11:37:29;;;;;;;7.35;5.00;;;;;;;1.66;86.97;94870.19;2066368;28;20236;-66
2023/11/30 11:38:30;;;;;;;8.45;5.20;;;;;;;1.73;87.29;94874.22;2067383;28;20341;-61
2023/11/30 11:39:32;;;;;;;8.98;4.32;;;;;;;1.83;87.06;94874.72;2067451;28;20206;-62
2023/11/30 11:40:38;;;;;;;8.20;4.85;;;;;;;1.68;86.98;94870.97;2067484;28;20194;-61
2023/11/30 11:41:47;;;;;;;6.68;4.20;;;;;;;1.70;87.64;94876.91;2067070;28;20200;-62
2023/11/30 11:42:48;;;;;;;7.25;4.32;;;;;;;1.61;87.79;94874.69;2066945;28;20228;-66
2023/11/30 11:43:50;;;;;;;7.65;4.55;;;;;;;1.81;87.93;94865.38;2068706;28;20701;-66
2023/11/30 11:48:50;;;;;;;10.05;4.85;;;;;;;1.87;88.01;94883.97;2089276;28;20569;-61
2023/11/30 11:49:52;;;;;;;9.15;4.60;;;;;;;1.76;88.35;94874.09;2091042;28;20296;-61
2023/11/30 11:50:58;;;;;;;10.68;4.15;;;;;;;1.77;88.04;94865.47;2091316;28;20250;-61
2023/11/30 11:55:44;;;;;;;7.15;4.55;;;;;;;2.01;87.42;94852.56;2082535;28;20561;-59
2023/11/30 11:56:50;;;;;;;8.73;4.50;;;;;;;2.08;86.37;94846.25;2081339;28;20217;-59
2023/11/30 12:01:50;;;;;;;6.60;4.13;;;;;;;1.82;87.26;94841.31;2082788;28;20570;-60
